Fair Bluff, NC

11:48 PM EST on December 24, 2014 (GMT -0500)
RL Fogle | Change Station
CLOSE
Current Station
Personal Weather Station
Location: Nichols, SC
Elevation: 75 ft
Nearby Weather Stations

Elev 75 ft 34.24 °N, 79.07 °W | Updated 2 seconds ago

Overcast
Overcast
65.7 °F
Feels Like 65.7 °F
N
1.0
Wind Variable Wind from SSE
Gusts 6.0 mph

Today
High -- | Low -- °F
--% Chance of Precip.
Yesterday
High -- | Low -- °F
Precip. -- in
7:19 AM 5:11 PM
Waxing Crescent, 13% visible
Pressure 29.75 in
Visibility 10.0 miles
Clouds Overcast 1100 ft
Dew Point 63 °F
Humidity 92%
Rainfall 0.97 in
Snow Depth Not available.
UV 0 out of 12
Pollen .50 out of 12
Air Quality Not available.
Flu Activity Not available.
METAR KCPC 250435Z AUTO 22006KT 10SM OVC011 19/17 A2975 RMK AO2 T01850170

More Conditions Fewer Conditions

Pressure 29.75 in
Visibility 10.0 miles
Clouds Overcast 1100 ft
Dew Point 63 °F
Humidity 92%
Rainfall 0.97 in
Snow Depth Not available.
UV 0 out of 12
Pollen .50 out of 12
Air Quality Not available.
Flu Activity Not available.
METAR KCPC 250435Z AUTO 22006KT 10SM OVC011 19/17 A2975 RMK AO2 T01850170

More Conditions Fewer Conditions

10-Day Weather Forecast

Almanac

Astronomy

Dec. 24, 2014 Rise Set
Actual Time
Civil Twilight
Nautical Twilight
Astronomical Twilight
Moon
Length of Visible Light
Length of Day
Tomorrow will be .
, % of the Moon is Illuminated

Today's Extremes

State Highs State Lows

Community

WunderPhotos

Upload Photos

1,780,238 photos uploaded!

WunderBlogs® & News

Nearby

Air Quality

  Air Quality AQ Index Pollutant
Not available.

Snow Depth

Station Depth Elevation

Earthquake Activity

City Distance Mag. Time & Date
Minimum magnitude displayed is 2.5.

Coastal Water Temperatures

Place Temperature

Nearby Weather Stations